Time;durP1;ratioP1;P1;durP2;ratioP2;P2;SDS_P1;SDS_P2;PMS_P1;PMS_P2;Temp;Humidity;BMP_temperature;BMP_pressure;BME280_temperature;BME280_humidity;BME280_pressure;Samples;Min_cycle;Max_cycle;Signal;HPM_P1;HPM_P2
2022/01/20 00:00:13;;;;;;;47.40;28.20;;;;;;;;;;2128567;27;20082;-48
2022/01/20 00:01:34;;;;;;;48.95;26.23;;;;;;;;;;2122454;28;20130;-48
2022/01/20 00:02:37;;;;;;;43.75;20.48;;;;;;;;;;2125018;27;20082;-47
2022/01/20 00:03:41;;;;;;;43.70;25.55;;;;;;;;;;2129004;27;20184;-49
2022/01/20 00:04:48;;;;;;;43.67;26.58;;;;;;;;;;2131309;27;20129;-48
2022/01/20 00:07:29;;;;;;;44.53;27.00;;;;;;;;;;2130337;27;20050;-48
2022/01/20 00:08:51;;;;;;;43.03;25.90;;;;;;;;;;2127052;27;20152;-48
2022/01/20 00:23:29;;;;;;;44.17;24.30;;;;;;;;;;2129728;27;20130;-47
2022/01/20 00:25:58;;;;;;;46.63;24.90;;;;;;;;;;2129390;27;20070;-47
2022/01/20 00:27:05;;;;;;;49.80;27.20;;;;;;;;;;2132757;27;20459;-49
2022/01/20 00:28:12;;;;;;;46.88;26.02;;;;;;;;;;2130699;27;20042;-47
2022/01/20 00:29:21;;;;;;;44.58;25.52;;;;;;;;;;2124121;27;20130;-47
2022/01/20 00:30:39;;;;;;;49.67;27.83;;;;;;;;;;2124295;28;20051;-45
2022/01/20 00:31:47;;;;;;;46.00;25.83;;;;;;;;;;2130113;27;20407;-44
2022/01/20 00:32:56;;;;;;;47.22;26.23;;;;;;;;;;2132580;27;20046;-45
2022/01/20 00:34:10;;;;;;;48.65;27.00;;;;;;;;;;2126765;27;20086;-45
2022/01/20 00:35:19;;;;;;;48.55;24.92;;;;;;;;;;2132855;27;20043;-49
2022/01/20 00:37:40;;;;;;;47.60;25.05;;;;;;;;;;2124005;28;20478;-48
2022/01/20 00:38:42;;;;;;;51.38;26.58;;;;;;;;;;2124042;28;20066;-47
2022/01/20 00:39:43;;;;;;;48.63;27.35;;;;;;;;;;2126730;27;20043;-49
2022/01/20 00:40:45;;;;;;;51.22;27.38;;;;;;;;;;2132429;27;20141;-48
2022/01/20 00:41:46;;;;;;;44.53;25.88;;;;;;;;;;2133017;27;20141;-48
2022/01/20 00:42:47;;;;;;;49.22;27.83;;;;;;;;;;2129821;27;20094;-48
2022/01/20 00:43:48;;;;;;;51.28;27.63;;;;;;;;;;2132503;27;20074;-50
2022/01/20 00:44:49;;;;;;;42.80;26.92;;;;;;;;;;2128049;27;20074;-47
2022/01/20 00:45:50;;;;;;;47.67;27.02;;;;;;;;;;2123762;27;20054;-47
2022/01/20 00:46:55;;;;;;;45.30;25.23;;;;;;;;;;2123942;28;20100;-47
2022/01/20 00:47:56;;;;;;;43.38;26.08;;;;;;;;;;2126713;27;20039;-48
2022/01/20 00:48:57;;;;;;;51.33;27.60;;;;;;;;;;2124087;28;20047;-48
2022/01/20 00:49:58;;;;;;;47.10;26.75;;;;;;;;;;2123993;28;20126;-47
2022/01/20 00:50:59;;;;;;;43.55;21.13;;;;;;;;;;2129535;27;20050;-47
2022/01/20 00:52:01;;;;;;;48.55;26.55;;;;;;;;;;2132598;27;20049;-48
2022/01/20 00:53:02;;;;;;;40.63;24.88;;;;;;;;;;2131933;27;20129;-47
2022/01/20 00:54:03;;;;;;;46.55;26.85;;;;;;;;;;2129095;27;20130;-47
2022/01/20 00:55:05;;;;;;;42.50;25.17;;;;;;;;;;2132478;27;20207;-47
2022/01/20 00:56:05;;;;;;;43.75;25.05;;;;;;;;;;2132382;27;20052;-47
2022/01/20 00:57:07;;;;;;;40.90;25.67;;;;;;;;;;2130630;27;20057;-48
2022/01/20 00:58:08;;;;;;;49.08;26.88;;;;;;;;;;2132462;27;20518;-47
2022/01/20 00:59:09;;;;;;;48.93;26.33;;;;;;;;;;2130288;27;20466;-50
2022/01/20 01:00:11;;;;;;;46.63;26.52;;;;;;;;;;2131450;27;20310;-48
2022/01/20 01:01:13;;;;;;;41.97;24.25;;;;;;;;;;2128452;27;20081;-47
2022/01/20 01:02:15;;;;;;;44.05;25.10;;;;;;;;;;2128000;27;20046;-46
2022/01/20 01:03:16;;;;;;;43.63;25.70;;;;;;;;;;2132673;27;20043;-47
2022/01/20 01:04:17;;;;;;;46.70;24.60;;;;;;;;;;2131889;27;20817;-46
2022/01/20 01:05:18;;;;;;;38.47;24.08;;;;;;;;;;2128396;27;20042;-47
2022/01/20 01:06:34;;;;;;;44.67;26.00;;;;;;;;;;2132326;27;20043;-48
2022/01/20 01:07:47;;;;;;;40.50;23.92;;;;;;;;;;2129375;27;20047;-47
2022/01/20 01:08:47;;;;;;;;;;;;;;;;;;2124248;28;20047;-49
2022/01/20 01:09:49;;;;;;;37.53;20.38;;;;;;;;;;2123813;28;20356;-47
2022/01/20 01:10:50;;;;;;;39.70;20.52;;;;;;;;;;2125782;27;20043;-48
2022/01/20 01:11:56;;;;;;;43.03;24.67;;;;;;;;;;2132323;27;20521;-46
2022/01/20 01:13:01;;;;;;;39.05;25.40;;;;;;;;;;2132495;27;20607;-47
2022/01/20 01:14:04;;;;;;;42.08;25.50;;;;;;;;;;2124552;27;20134;-48
2022/01/20 01:15:11;;;;;;;44.08;25.20;;;;;;;;;;2123669;28;20075;-46
2022/01/20 01:16:13;;;;;;;42.75;23.65;;;;;;;;;;2124041;27;21108;-47
2022/01/20 01:20:16;;;;;;;38.25;22.02;;;;;;;;;;2130204;27;20153;-47
2022/01/20 01:21:28;;;;;;;49.47;24.85;;;;;;;;;;2131997;27;20046;-47
2022/01/20 01:22:30;;;;;;;41.38;24.17;;;;;;;;;;2124184;27;20071;-48
2022/01/20 01:23:34;;;;;;;46.15;26.58;;;;;;;;;;2123282;27;20723;-48
2022/01/20 01:24:35;;;;;;;45.13;25.55;;;;;;;;;;2126435;27;20050;-45
2022/01/20 01:25:37;;;;;;;43.47;25.10;;;;;;;;;;2123425;27;20047;-44
2022/01/20 01:26:38;;;;;;;38.42;23.75;;;;;;;;;;2123678;28;20066;-45
2022/01/20 01:27:41;;;;;;;39.75;24.25;;;;;;;;;;2127891;27;20277;-44
2022/01/20 01:28:42;;;;;;;41.78;24.95;;;;;;;;;;2132241;27;20073;-44
2022/01/20 01:30:05;;;;;;;42.78;25.77;;;;;;;;;;2132308;27;20047;-44
2022/01/20 01:31:28;;;;;;;44.88;23.60;;;;;;;;;;2123300;27;20439;-44
2022/01/20 01:32:37;;;;;;;41.70;23.95;;;;;;;;;;2124436;27;20039;-44
2022/01/20 01:33:48;;;;;;;40.65;19.23;;;;;;;;;;2128756;27;20168;-44
2022/01/20 01:34:52;;;;;;;45.03;25.02;;;;;;;;;;2132348;27;20125;-44
2022/01/20 01:35:56;;;;;;;37.88;23.10;;;;;;;;;;2127242;27;20273;-44
2022/01/20 01:37:06;;;;;;;37.67;23.27;;;;;;;;;;2132165;27;20456;-44
2022/01/20 01:38:25;;;;;;;41.22;22.13;;;;;;;;;;2131601;27;20123;-43
2022/01/20 01:39:26;;;;;;;40.47;24.40;;;;;;;;;;2130010;27;20049;-44
2022/01/20 01:40:29;;;;;;;43.38;24.92;;;;;;;;;;2132182;27;20122;-44
2022/01/20 01:41:34;;;;;;;37.17;18.40;;;;;;;;;;2127478;27;20477;-43
2022/01/20 01:42:41;;;;;;;43.00;24.13;;;;;;;;;;2132044;27;20126;-44
2022/01/20 01:43:44;;;;;;;39.53;23.85;;;;;;;;;;2131813;27;20073;-44
2022/01/20 01:44:45;;;;;;;41.53;24.00;;;;;;;;;;2127874;27;20046;-44
2022/01/20 01:45:48;;;;;;;;;;;;;;;;;;2132586;27;20149;-43
2022/01/20 01:46:50;;;;;;;33.80;18.02;;;;;;;;;;2130958;27;19923;-44
2022/01/20 01:47:51;;;;;;;39.10;23.27;;;;;;;;;;2130466;27;20483;-46
2022/01/20 01:48:52;;;;;;;42.28;25.10;;;;;;;;;;2132201;27;20055;-47
2022/01/20 01:49:53;;;;;;;39.17;23.35;;;;;;;;;;2131143;27;20042;-46
2022/01/20 01:50:55;;;;;;;42.28;23.60;;;;;;;;;;2131062;27;20467;-46
2022/01/20 01:51:55;;;;;;;43.08;23.17;;;;;;;;;;2132081;27;20042;-47
2022/01/20 01:52:57;;;;;;;40.50;23.00;;;;;;;;;;2128994;27;20039;-47
2022/01/20 01:53:58;;;;;;;;;;;;;;;;;;2132443;27;20095;-46
2022/01/20 01:55:00;;;;;;;45.05;22.38;;;;;;;;;;2131466;27;19970;-47
2022/01/20 01:56:01;;;;;;;44.40;25.02;;;;;;;;;;2124095;27;20130;-47
2022/01/20 01:57:06;;;;;;;45.28;26.02;;;;;;;;;;2123633;28;20133;-46
2022/01/20 01:58:06;;;;;;;40.60;25.27;;;;;;;;;;2123350;27;20122;-43
2022/01/20 01:59:08;;;;;;;44.43;26.37;;;;;;;;;;2129703;27;20045;-44
2022/01/20 02:00:09;;;;;;;44.78;26.83;;;;;;;;;;2132025;27;20050;-43
2022/01/20 02:01:11;;;;;;;44.90;25.40;;;;;;;;;;2129941;27;20118;-44
2022/01/20 02:02:12;;;;;;;41.05;20.05;;;;;;;;;;2123291;27;20054;-45
2022/01/20 02:03:14;;;;;;;42.47;25.73;;;;;;;;;;2123620;28;20050;-43
2022/01/20 02:04:18;;;;;;;;;;;;;;;;;;2126191;27;20058;-43
2022/01/20 02:05:21;;;;;;;43.70;24.15;;;;;;;;;;2132178;27;19997;-47
2022/01/20 02:06:42;;;;;;;45.88;25.83;;;;;;;;;;2131891;27;20156;-48
2022/01/20 02:08:21;;;;;;;42.63;24.52;;;;;;;;;;2129153;27;20509;-46
2022/01/20 02:09:40;;;;;;;40.28;22.48;;;;;;;;;;2131876;27;20046;-47
2022/01/20 02:18:48;;;;;;;46.28;24.73;;;;;;;;;;2127406;27;20047;-48
2022/01/20 02:19:54;;;;;;;43.40;25.73;;;;;;;;;;2131940;27;20562;-49
2022/01/20 02:20:56;;;;;;;40.65;22.67;;;;;;;;;;2129965;27;20439;-48
2022/01/20 02:22:02;;;;;;;40.17;24.25;;;;;;;;;;2130577;27;20050;-48
2022/01/20 02:23:03;;;;;;;40.78;23.88;;;;;;;;;;2131809;27;20176;-47
2022/01/20 02:24:04;;;;;;;43.22;23.70;;;;;;;;;;2129094;27;20043;-48
2022/01/20 02:25:05;;;;;;;40.05;23.83;;;;;;;;;;2123234;28;20176;-48
2022/01/20 02:26:07;;;;;;;40.58;24.48;;;;;;;;;;2123191;28;20051;-48
2022/01/20 02:27:08;;;;;;;42.58;25.52;;;;;;;;;;2128492;27;20522;-48
2022/01/20 02:28:10;;;;;;;39.53;23.77;;;;;;;;;;2131936;27;20126;-49
2022/01/20 02:29:11;;;;;;;38.35;23.35;;;;;;;;;;2132064;27;20351;-48
2022/01/20 02:30:13;;;;;;;38.40;23.30;;;;;;;;;;2128652;27;20126;-48
2022/01/20 02:31:14;;;;;;;39.95;24.17;;;;;;;;;;2132045;27;20188;-45
2022/01/20 02:32:16;;;;;;;42.25;23.17;;;;;;;;;;2129876;27;20110;-44
2022/01/20 02:33:19;;;;;;;39.22;23.45;;;;;;;;;;2130376;27;20053;-44
2022/01/20 02:34:21;;;;;;;40.25;22.52;;;;;;;;;;2131717;27;20069;-45
2022/01/20 02:35:24;;;;;;;39.50;24.13;;;;;;;;;;2127486;27;20129;-44
2022/01/20 02:36:27;;;;;;;38.58;23.65;;;;;;;;;;2131736;27;20122;-44
2022/01/20 02:37:29;;;;;;;44.55;25.52;;;;;;;;;;2131789;27;20047;-44
2022/01/20 02:38:35;;;;;;;;;;;;;;;;;;2126877;27;20522;-44
2022/01/20 02:40:01;;;;;;;39.03;19.55;;;;;;;;;;2132031;27;20010;-45
2022/01/20 02:45:03;;;;;;;40.63;21.52;;;;;;;;;;2123139;28;20552;-44
2022/01/20 02:46:05;;;;;;;41.08;22.25;;;;;;;;;;2124172;27;20506;-44
2022/01/20 02:47:07;;;;;;;41.88;24.13;;;;;;;;;;2127783;27;20038;-45
2022/01/20 02:48:08;;;;;;;39.25;23.90;;;;;;;;;;2131759;27;20050;-45
2022/01/20 02:49:13;;;;;;;44.40;24.70;;;;;;;;;;2130864;27;20159;-45
2022/01/20 02:50:14;;;;;;;42.47;24.98;;;;;;;;;;2130651;27;20039;-50
2022/01/20 02:51:16;;;;;;;42.43;23.77;;;;;;;;;;2131772;27;20129;-47
2022/01/20 02:52:17;;;;;;;49.75;25.50;;;;;;;;;;2127585;27;20055;-46
2022/01/20 02:53:18;;;;;;;42.70;23.87;;;;;;;;;;2131253;27;20437;-46
2022/01/20 02:54:20;;;;;;;43.05;25.10;;;;;;;;;;2131610;27;20310;-46
2022/01/20 02:55:21;;;;;;;40.25;23.85;;;;;;;;;;2128528;27;20415;-46
2022/01/20 02:56:22;;;;;;;40.00;23.30;;;;;;;;;;2131504;27;20053;-46
2022/01/20 02:57:23;;;;;;;41.55;24.05;;;;;;;;;;2131809;27;20127;-48
2022/01/20 02:58:24;;;;;;;40.72;24.15;;;;;;;;;;2128092;27;20129;-48
2022/01/20 02:59:25;;;;;;;41.50;24.50;;;;;;;;;;2131827;27;20051;-45
2022/01/20 03:00:27;;;;;;;40.08;24.35;;;;;;;;;;2130752;27;20546;-44
2022/01/20 03:01:28;;;;;;;43.22;24.33;;;;;;;;;;2123098;27;20604;-44
2022/01/20 03:02:29;;;;;;;43.72;24.40;;;;;;;;;;2122902;28;20448;-44
2022/01/20 03:03:30;;;;;;;40.17;21.20;;;;;;;;;;2125769;27;20522;-45
2022/01/20 03:04:31;;;;;;;40.83;24.45;;;;;;;;;;2130216;27;20722;-45
2022/01/20 03:05:33;;;;;;;42.78;25.70;;;;;;;;;;2131436;27;20460;-44
2022/01/20 03:06:35;;;;;;;44.28;25.55;;;;;;;;;;2129587;27;20138;-45
2022/01/20 03:07:36;;;;;;;42.03;24.38;;;;;;;;;;2131556;27;20570;-45
2022/01/20 03:08:37;;;;;;;43.05;25.40;;;;;;;;;;2131647;27;20106;-44
2022/01/20 03:09:38;;;;;;;42.60;25.15;;;;;;;;;;2128440;27;20521;-44
2022/01/20 03:10:39;;;;;;;47.00;25.40;;;;;;;;;;2131789;27;20050;-44
2022/01/20 03:11:40;;;;;;;44.60;25.15;;;;;;;;;;2132096;27;20081;-44
2022/01/20 03:12:41;;;;;;;43.30;24.55;;;;;;;;;;2129464;27;20462;-45
2022/01/20 03:13:42;;;;;;;43.95;25.38;;;;;;;;;;2131583;27;20057;-44
2022/01/20 03:14:43;;;;;;;41.30;24.77;;;;;;;;;;2128545;27;20070;-44
2022/01/20 03:15:44;;;;;;;40.23;25.00;;;;;;;;;;2122861;27;20403;-44
2022/01/20 03:16:45;;;;;;;46.03;25.13;;;;;;;;;;2122973;27;20085;-43
2022/01/20 03:17:48;;;;;;;42.88;25.00;;;;;;;;;;2127668;27;20138;-44
2022/01/20 03:18:49;;;;;;;46.88;25.60;;;;;;;;;;2131737;27;20126;-45
2022/01/20 03:19:50;;;;;;;43.20;25.70;;;;;;;;;;2130941;27;20428;-44
2022/01/20 03:20:51;;;;;;;43.33;25.73;;;;;;;;;;2127461;27;20505;-44
2022/01/20 03:21:53;;;;;;;48.97;26.80;;;;;;;;;;2131888;27;20039;-43
2022/01/20 03:22:53;;;;;;;41.63;26.25;;;;;;;;;;2130332;27;20079;-43
2022/01/20 03:23:55;;;;;;;49.70;26.00;;;;;;;;;;2124227;27;20047;-44
2022/01/20 03:24:57;;;;;;;43.07;24.47;;;;;;;;;;2122998;28;20134;-44
2022/01/20 03:25:58;;;;;;;40.72;20.38;;;;;;;;;;2126908;27;20853;-47
2022/01/20 03:26:59;;;;;;;47.47;26.23;;;;;;;;;;2130585;27;20490;-47
2022/01/20 03:28:01;;;;;;;41.70;23.85;;;;;;;;;;2131680;27;20046;-44
2022/01/20 03:29:02;;;;;;;47.67;26.48;;;;;;;;;;2128340;27;20091;-44
2022/01/20 03:30:04;;;;;;;42.22;26.38;;;;;;;;;;2131349;27;20049;-44
2022/01/20 03:31:05;;;;;;;46.60;26.25;;;;;;;;;;2130625;27;20047;-45
2022/01/20 03:32:06;;;;;;;39.70;25.60;;;;;;;;;;2126520;27;20051;-45
2022/01/20 03:33:07;;;;;;;44.83;24.25;;;;;;;;;;2131511;27;20043;-44
2022/01/20 03:34:08;;;;;;;46.75;25.55;;;;;;;;;;2132101;27;20057;-44
2022/01/20 03:35:11;;;;;;;43.78;26.02;;;;;;;;;;2123506;27;20559;-46
2022/01/20 03:36:12;;;;;;;45.30;25.27;;;;;;;;;;2122736;28;20575;-44
2022/01/20 03:37:14;;;;;;;47.63;26.35;;;;;;;;;;2124033;27;20125;-45
2022/01/20 03:38:15;;;;;;;44.47;25.42;;;;;;;;;;2129936;27;20476;-45
2022/01/20 03:39:16;;;;;;;47.72;27.30;;;;;;;;;;2131398;27;20125;-44
2022/01/20 03:40:20;;;;;;;43.00;25.67;;;;;;;;;;2129098;27;20050;-44
2022/01/20 03:41:21;;;;;;;51.28;26.73;;;;;;;;;;2122674;28;20134;-44
2022/01/20 03:42:22;;;;;;;44.77;27.37;;;;;;;;;;2122904;28;20070;-45
2022/01/20 03:43:23;;;;;;;45.50;26.25;;;;;;;;;;2127174;27;20111;-44
2022/01/20 03:44:25;;;;;;;44.28;26.50;;;;;;;;;;2131516;27;20053;-44
2022/01/20 03:45:27;;;;;;;44.60;24.88;;;;;;;;;;2130751;27;20171;-45
2022/01/20 03:46:29;;;;;;;40.35;20.67;;;;;;;;;;2128479;27;20070;-45
2022/01/20 03:47:30;;;;;;;45.78;22.98;;;;;;;;;;2131382;27;20080;-45
2022/01/20 03:48:37;;;;;;;47.57;24.80;;;;;;;;;;2129459;27;20467;-45
2022/01/20 03:49:50;;;;;;;46.22;27.27;;;;;;;;;;2122835;27;20108;-44
2022/01/20 03:51:00;;;;;;;45.55;26.40;;;;;;;;;;2122639;28;20047;-44
2022/01/20 03:52:03;;;;;;;48.90;26.98;;;;;;;;;;2127618;27;20043;-48
2022/01/20 03:53:05;;;;;;;48.45;28.15;;;;;;;;;;2131255;27;20122;-47
2022/01/20 03:54:06;;;;;;;47.00;27.80;;;;;;;;;;2129699;27;20129;-47
2022/01/20 03:55:07;;;;;;;49.00;27.45;;;;;;;;;;2129661;27;20039;-47
2022/01/20 03:56:09;;;;;;;50.05;26.80;;;;;;;;;;2131378;27;20131;-48
2022/01/20 03:57:10;;;;;;;44.90;26.42;;;;;;;;;;2125968;27;20039;-48
2022/01/20 03:58:11;;;;;;;46.15;25.65;;;;;;;;;;2130732;27;20188;-48
2022/01/20 03:59:12;;;;;;;45.53;28.25;;;;;;;;;;2131189;27;20133;-48
2022/01/20 04:00:14;;;;;;;47.13;26.93;;;;;;;;;;2126904;27;20122;-47
2022/01/20 04:01:15;;;;;;;46.28;26.90;;;;;;;;;;2127085;27;20286;-47
2022/01/20 04:02:16;;;;;;;47.28;27.98;;;;;;;;;;2123281;27;20503;-48
2022/01/20 04:03:18;;;;;;;49.38;28.60;;;;;;;;;;2125771;27;20487;-48
2022/01/20 04:04:19;;;;;;;54.28;27.52;;;;;;;;;;2122779;28;20043;-48
2022/01/20 04:05:20;;;;;;;49.30;27.38;;;;;;;;;;2125867;27;20119;-47
2022/01/20 04:06:23;;;;;;;50.33;28.60;;;;;;;;;;2123402;27;20054;-48
2022/01/20 04:07:24;;;;;;;49.03;27.35;;;;;;;;;;2122627;28;20051;-47
2022/01/20 04:08:27;;;;;;;52.33;28.75;;;;;;;;;;2121761;27;20071;-48
2022/01/20 04:09:28;;;;;;;52.72;25.92;;;;;;;;;;2122632;27;20067;-48
2022/01/20 04:10:29;;;;;;;50.30;28.25;;;;;;;;;;2122641;28;20122;-48
2022/01/20 04:11:30;;;;;;;51.65;27.95;;;;;;;;;;2126328;27;20047;-48
2022/01/20 04:12:32;;;;;;;53.08;28.50;;;;;;;;;;2131258;27;20046;-48
2022/01/20 04:13:34;;;;;;;49.08;27.65;;;;;;;;;;2130917;27;20049;-48
2022/01/20 04:14:36;;;;;;;;;;;;;;;;;;2126772;27;20142;-48
2022/01/20 04:15:40;;;;;;;49.28;22.60;;;;;;;;;;2131045;27;20272;-48
2022/01/20 04:16:53;;;;;;;50.85;22.40;;;;;;;;;;2129003;27;20043;-47
2022/01/20 04:17:56;;;;;;;;;;;;;;;;;;2129871;27;20129;-48
2022/01/20 04:18:59;;;;;;;45.72;24.55;;;;;;;;;;2131153;27;20014;-48
2022/01/20 04:20:00;;;;;;;47.92;27.35;;;;;;;;;;2127986;27;20176;-48
2022/01/20 04:21:01;;;;;;;46.80;22.03;;;;;;;;;;2131189;27;20043;-47
2022/01/20 04:22:02;;;;;;;48.65;28.02;;;;;;;;;;2131090;27;20167;-48
2022/01/20 04:23:04;;;;;;;46.67;26.95;;;;;;;;;;2123431;27;20480;-47
2022/01/20 04:24:06;;;;;;;47.33;25.05;;;;;;;;;;2122790;28;20051;-46
2022/01/20 04:25:07;;;;;;;46.83;26.00;;;;;;;;;;2125400;27;20121;-44
2022/01/20 04:26:08;;;;;;;45.95;25.88;;;;;;;;;;2128346;27;20122;-45
2022/01/20 04:27:09;;;;;;;46.70;24.20;;;;;;;;;;2131185;27;20047;-44
2022/01/20 04:28:10;;;;;;;46.03;26.38;;;;;;;;;;2129022;27;20414;-45
2022/01/20 04:29:11;;;;;;;44.88;26.40;;;;;;;;;;2129715;27;20118;-45
2022/01/20 04:30:12;;;;;;;40.05;22.30;;;;;;;;;;2131190;27;20042;-45
2022/01/20 04:31:13;;;;;;;45.00;25.20;;;;;;;;;;2128098;27;20126;-45
2022/01/20 04:32:15;;;;;;;41.83;21.37;;;;;;;;;;2131099;27;20050;-45
2022/01/20 04:33:15;;;;;;;51.67;27.48;;;;;;;;;;2131053;27;20377;-45
2022/01/20 04:34:17;;;;;;;42.92;24.73;;;;;;;;;;2127840;27;20148;-45
2022/01/20 04:35:20;;;;;;;41.30;24.45;;;;;;;;;;2131170;27;20137;-45
2022/01/20 04:36:21;;;;;;;39.58;20.70;;;;;;;;;;2131602;27;20407;-46
2022/01/20 04:37:22;;;;;;;43.03;25.25;;;;;;;;;;2128283;27;20087;-44
2022/01/20 04:38:23;;;;;;;42.67;25.10;;;;;;;;;;2131235;27;20431;-44
2022/01/20 04:39:28;;;;;;;49.10;26.83;;;;;;;;;;2129918;27;20133;-45
2022/01/20 04:40:36;;;;;;;48.03;25.50;;;;;;;;;;2128638;27;20462;-45
2022/01/20 04:41:37;;;;;;;42.35;24.55;;;;;;;;;;2131154;27;20241;-46
2022/01/20 04:42:40;;;;;;;42.60;25.03;;;;;;;;;;2125010;27;20184;-46
2022/01/20 04:43:41;;;;;;;46.53;24.58;;;;;;;;;;2131164;27;20129;-45
2022/01/20 04:44:48;;;;;;;46.10;25.60;;;;;;;;;;2130975;27;20483;-46
2022/01/20 04:45:55;;;;;;;42.55;22.95;;;;;;;;;;2126444;27;20039;-46
2022/01/20 04:47:03;;;;;;;42.17;25.52;;;;;;;;;;2131009;27;20062;-45
2022/01/20 04:48:17;;;;;;;46.67;24.90;;;;;;;;;;2129173;27;20456;-45
2022/01/20 04:57:26;;;;;;;44.40;24.52;;;;;;;;;;2123236;27;20172;-45
2022/01/20 04:58:27;;;;;;;39.90;21.17;;;;;;;;;;2122646;27;20463;-45
2022/01/20 04:59:28;;;;;;;46.87;26.53;;;;;;;;;;2125937;27;20046;-45
2022/01/20 05:00:30;;;;;;;44.05;24.38;;;;;;;;;;2132458;27;20053;-44
2022/01/20 05:01:31;;;;;;;44.60;21.23;;;;;;;;;;2125420;27;20479;-46
2022/01/20 05:02:32;;;;;;;46.75;26.05;;;;;;;;;;2128831;27;20078;-44
2022/01/20 05:03:34;;;;;;;45.50;21.67;;;;;;;;;;2132335;27;20502;-44
2022/01/20 05:04:35;;;;;;;45.45;26.35;;;;;;;;;;2133163;27;20057;-45
2022/01/20 05:05:37;;;;;;;45.88;25.27;;;;;;;;;;2124555;27;20419;-46
2022/01/20 05:06:41;;;;;;;44.97;24.75;;;;;;;;;;2123846;28;20495;-44
2022/01/20 05:07:42;;;;;;;44.17;25.08;;;;;;;;;;2126853;27;20095;-45
2022/01/20 05:08:43;;;;;;;46.53;21.25;;;;;;;;;;2130762;27;20616;-44
2022/01/20 05:09:45;;;;;;;42.73;25.20;;;;;;;;;;2131779;27;20050;-44
2022/01/20 05:10:46;;;;;;;41.08;22.83;;;;;;;;;;2127088;27;20796;-45
2022/01/20 05:11:52;;;;;;;43.30;24.58;;;;;;;;;;2131658;27;20446;-45
2022/01/20 05:13:07;;;;;;;42.15;21.98;;;;;;;;;;2132941;27;20043;-43
2022/01/20 05:14:08;;;;;;;45.83;23.52;;;;;;;;;;2129025;27;20171;-45
2022/01/20 05:15:09;;;;;;;43.08;24.27;;;;;;;;;;2132611;27;20077;-47
2022/01/20 05:16:10;;;;;;;40.78;21.50;;;;;;;;;;2130836;27;20085;-48
2022/01/20 05:17:11;;;;;;;49.35;25.38;;;;;;;;;;2123835;27;20127;-49
2022/01/20 05:18:13;;;;;;;42.03;19.10;;;;;;;;;;2123651;28;20043;-47
2022/01/20 05:19:14;;;;;;;45.03;23.80;;;;;;;;;;2127421;27;20365;-49
2022/01/20 05:20:15;;;;;;;44.10;23.17;;;;;;;;;;2132326;27;20047;-48
2022/01/20 05:21:19;;;;;;;42.08;18.45;;;;;;;;;;2131999;27;20149;-47
2022/01/20 05:22:20;;;;;;;41.42;23.63;;;;;;;;;;2130174;27;20466;-47
2022/01/20 05:23:21;;;;;;;39.65;22.15;;;;;;;;;;2132241;27;20129;-47
2022/01/20 05:24:22;;;;;;;47.28;21.45;;;;;;;;;;2132127;27;20070;-48
2022/01/20 05:25:23;;;;;;;43.15;23.35;;;;;;;;;;2124415;27;20118;-48
2022/01/20 05:26:25;;;;;;;41.47;21.70;;;;;;;;;;2123601;28;20134;-47
2022/01/20 05:27:26;;;;;;;40.22;19.92;;;;;;;;;;2126229;27;20166;-45
2022/01/20 05:28:27;;;;;;;41.38;23.63;;;;;;;;;;2131028;27;20133;-45
2022/01/20 05:29:28;;;;;;;39.60;20.23;;;;;;;;;;2132152;27;20125;-45
2022/01/20 05:30:29;;;;;;;46.93;23.87;;;;;;;;;;2130439;27;20047;-45
2022/01/20 05:31:30;;;;;;;44.67;24.05;;;;;;;;;;2132276;27;20106;-45
2022/01/20 05:32:31;;;;;;;36.70;20.77;;;;;;;;;;2132289;27;20054;-46
2022/01/20 05:33:33;;;;;;;38.35;20.40;;;;;;;;;;2130258;27;20521;-51
2022/01/20 05:34:34;;;;;;;40.03;22.65;;;;;;;;;;2132249;27;20046;-52
2022/01/20 05:35:36;;;;;;;;;;;;;;;;;;2133262;27;20058;-52
2022/01/20 05:36:37;;;;;;;34.25;16.80;;;;;;;;;;2129662;27;19923;-49
2022/01/20 05:37:38;;;;;;;34.57;19.43;;;;;;;;;;2132299;27;20066;-47
2022/01/20 05:38:39;;;;;;;40.40;23.08;;;;;;;;;;2129541;27;20043;-49
2022/01/20 05:39:41;;;;;;;41.97;24.05;;;;;;;;;;2131670;27;20046;-47
2022/01/20 05:40:42;;;;;;;41.42;23.52;;;;;;;;;;2132118;27;20129;-46
2022/01/20 05:41:44;;;;;;;42.35;22.35;;;;;;;;;;2127774;27;20077;-46
2022/01/20 05:42:47;;;;;;;41.20;20.60;;;;;;;;;;2123814;28;20094;-46
2022/01/20 05:43:47;;;;;;;40.85;23.75;;;;;;;;;;2125033;27;20058;-47
2022/01/20 05:44:51;;;;;;;37.40;18.80;;;;;;;;;;2128394;27;20078;-46
2022/01/20 05:45:52;;;;;;;43.60;24.58;;;;;;;;;;2132177;27;20070;-48
2022/01/20 05:46:54;;;;;;;39.13;19.08;;;;;;;;;;2132341;27;20485;-46
2022/01/20 05:48:07;;;;;;;39.63;22.45;;;;;;;;;;2130240;27;20042;-49
2022/01/20 05:49:09;;;;;;;41.30;18.92;;;;;;;;;;2132152;27;20123;-47
2022/01/20 05:50:10;;;;;;;41.35;23.25;;;;;;;;;;2127735;27;20081;-46
2022/01/20 05:51:12;;;;;;;38.03;20.83;;;;;;;;;;2132167;27;20125;-44
2022/01/20 05:52:15;;;;;;;42.92;20.95;;;;;;;;;;2131891;27;20102;-45
2022/01/20 05:53:16;;;;;;;41.92;24.15;;;;;;;;;;2127490;27;20407;-44
2022/01/20 05:54:17;;;;;;;35.58;19.23;;;;;;;;;;2123771;28;20122;-47
2022/01/20 05:55:20;;;;;;;33.85;17.88;;;;;;;;;;2126815;27;20115;-49
2022/01/20 05:56:21;;;;;;;43.10;23.60;;;;;;;;;;2124071;27;20118;-47
2022/01/20 05:57:22;;;;;;;40.47;23.75;;;;;;;;;;2123554;28;20115;-48
2022/01/20 05:58:24;;;;;;;36.22;18.77;;;;;;;;;;2126248;27;20047;-47
2022/01/20 05:59:24;;;;;;;39.80;23.20;;;;;;;;;;2130918;27;20085;-47
2022/01/20 06:00:26;;;;;;;39.13;20.95;;;;;;;;;;2132048;27;20423;-47
2022/01/20 06:01:28;;;;;;;38.72;19.42;;;;;;;;;;2126777;27;20101;-44
2022/01/20 06:02:35;;;;;;;39.63;23.83;;;;;;;;;;2131988;27;20047;-44
2022/01/20 06:03:36;;;;;;;41.83;19.70;;;;;;;;;;2132130;27;20119;-45
2022/01/20 06:04:37;;;;;;;35.53;20.97;;;;;;;;;;2128537;27;20555;-44
2022/01/20 06:05:39;;;;;;;38.13;22.35;;;;;;;;;;2131971;27;20042;-44
2022/01/20 06:06:40;;;;;;;;;;;;;;;;;;2131631;27;20054;-45
2022/01/20 06:07:41;;;;;;;34.47;17.85;;;;;;;;;;2124582;27;20010;-44
2022/01/20 06:08:42;;;;;;;42.90;20.47;;;;;;;;;;2126782;27;20126;-44
2022/01/20 06:09:43;;;;;;;38.63;19.10;;;;;;;;;;2130101;27;20130;-44
2022/01/20 06:10:44;;;;;;;43.78;23.70;;;;;;;;;;2130591;27;20045;-44
2022/01/20 06:11:45;;;;;;;42.67;23.02;;;;;;;;;;2132001;27;20146;-44
2022/01/20 06:12:47;;;;;;;38.80;20.05;;;;;;;;;;2128949;27;20150;-47
2022/01/20 06:13:48;;;;;;;41.22;22.77;;;;;;;;;;2131962;27;20046;-47
2022/01/20 06:14:49;;;;;;;40.42;24.88;;;;;;;;;;2131942;27;20043;-50
2022/01/20 06:15:50;;;;;;;37.25;20.17;;;;;;;;;;2126592;27;20133;-48
2022/01/20 06:16:51;;;;;;;46.47;23.27;;;;;;;;;;2131818;27;20038;-47
2022/01/20 06:17:52;;;;;;;46.45;23.50;;;;;;;;;;2130869;27;20415;-47
2022/01/20 06:18:54;;;;;;;44.57;24.13;;;;;;;;;;2125301;27;20047;-46
2022/01/20 06:19:54;;;;;;;39.00;19.70;;;;;;;;;;2123541;28;20082;-46
2022/01/20 06:20:56;;;;;;;42.70;23.38;;;;;;;;;;2125124;27;20421;-47
2022/01/20 06:21:56;;;;;;;43.70;26.23;;;;;;;;;;2130513;27;20479;-48
2022/01/20 06:22:58;;;;;;;38.92;20.55;;;;;;;;;;2131913;27;20071;-46
2022/01/20 06:24:05;;;;;;;40.50;20.95;;;;;;;;;;2128678;27;20131;-47
2022/01/20 06:25:06;;;;;;;43.85;22.08;;;;;;;;;;2132184;27;20056;-48
2022/01/20 06:26:07;;;;;;;46.17;24.45;;;;;;;;;;2131782;27;20045;-47
2022/01/20 06:27:08;;;;;;;46.70;24.73;;;;;;;;;;2128682;27;20126;-47
2022/01/20 06:28:10;;;;;;;37.95;20.90;;;;;;;;;;2131772;27;20050;-48
2022/01/20 06:29:11;;;;;;;43.10;25.73;;;;;;;;;;2131265;27;20523;-44
2022/01/20 06:30:12;;;;;;;40.83;19.40;;;;;;;;;;2128079;27;20094;-44
2022/01/20 06:31:16;;;;;;;38.30;22.30;;;;;;;;;;2131910;27;20077;-44
2022/01/20 06:32:17;;;;;;;40.10;21.67;;;;;;;;;;2130087;27;20038;-44
2022/01/20 06:33:18;;;;;;;37.60;20.10;;;;;;;;;;2129892;27;20045;-44
2022/01/20 06:34:19;;;;;;;42.00;24.55;;;;;;;;;;2131819;27;20054;-44
2022/01/20 06:35:20;;;;;;;38.42;20.42;;;;;;;;;;2129134;27;20468;-44
2022/01/20 06:36:21;;;;;;;41.42;23.00;;;;;;;;;;2131495;27;20133;-44
2022/01/20 06:37:22;;;;;;;39.53;18.58;;;;;;;;;;2131696;27;20043;-44
2022/01/20 06:38:25;;;;;;;44.85;24.73;;;;;;;;;;2128700;27;20078;-45
2022/01/20 06:39:26;;;;;;;44.15;22.45;;;;;;;;;;2131700;27;20182;-44
2022/01/20 06:40:27;;;;;;;46.50;19.48;;;;;;;;;;2132308;27;20125;-44
2022/01/20 06:41:33;;;;;;;42.00;24.10;;;;;;;;;;2127912;27;20189;-44
2022/01/20 06:42:35;;;;;;;41.35;17.88;;;;;;;;;;2131776;27;20070;-45
2022/01/20 06:43:36;;;;;;;37.63;21.40;;;;;;;;;;2131223;27;20426;-44
2022/01/20 06:44:37;;;;;;;;;;;;;;;;;;2129794;27;20078;-44
2022/01/20 06:45:38;;;;;;;37.17;17.63;;;;;;;;;;2131628;27;19919;-44
2022/01/20 06:46:39;;;;;;;38.47;18.75;;;;;;;;;;2129842;27;20070;-43
2022/01/20 06:47:41;;;;;;;40.13;22.75;;;;;;;;;;2123377;27;20043;-44
2022/01/20 06:48:42;;;;;;;31.58;18.35;;;;;;;;;;2123087;28;20126;-43